sensor_id;sensor_type;location;lat;lon;timestamp;temperature;humidity
12872;DHT22;6504;53.766;9.626;2024-03-06T00:02:13;4.60;99.90
12872;DHT22;6504;53.766;9.626;2024-03-06T00:04:41;4.60;99.90
12872;DHT22;6504;53.766;9.626;2024-03-06T00:07:11;4.60;99.90
12872;DHT22;6504;53.766;9.626;2024-03-06T00:09:39;4.60;99.90
12872;DHT22;6504;53.766;9.626;2024-03-06T00:12:07;4.60;99.90
12872;DHT22;6504;53.766;9.626;2024-03-06T00:14:35;4.60;99.90
12872;DHT22;6504;53.766;9.626;2024-03-06T00:17:05;4.50;99.90
12872;DHT22;6504;53.766;9.626;2024-03-06T00:19:34;4.50;99.90
12872;DHT22;6504;53.766;9.626;2024-03-06T00:22:02;4.50;99.90
12872;DHT22;6504;53.766;9.626;2024-03-06T00:24:31;4.50;99.90
12872;DHT22;6504;53.766;9.626;2024-03-06T00:27:00;4.50;99.90
12872;DHT22;6504;53.766;9.626;2024-03-06T00:29:28;4.50;99.90
12872;DHT22;6504;53.766;9.626;2024-03-06T00:31:59;4.50;99.90
12872;DHT22;6504;53.766;9.626;2024-03-06T00:34:27;4.50;99.90
12872;DHT22;6504;53.766;9.626;2024-03-06T00:36:56;4.50;99.90
12872;DHT22;6504;53.766;9.626;2024-03-06T00:39:24;4.50;99.90
12872;DHT22;6504;53.766;9.626;2024-03-06T00:41:52;4.50;99.90
12872;DHT22;6504;53.766;9.626;2024-03-06T00:44:21;4.50;99.90
12872;DHT22;6504;53.766;9.626;2024-03-06T00:46:49;4.50;99.90
12872;DHT22;6504;53.766;9.626;2024-03-06T00:49:17;4.50;99.90
12872;DHT22;6504;53.766;9.626;2024-03-06T00:51:46;4.50;99.90
12872;DHT22;6504;53.766;9.626;2024-03-06T00:54:16;4.40;99.90
12872;DHT22;6504;53.766;9.626;2024-03-06T00:56:44;4.40;99.90
12872;DHT22;6504;53.766;9.626;2024-03-06T00:59:12;4.40;99.90
12872;DHT22;6504;53.766;9.626;2024-03-06T01:01:41;4.40;99.90
12872;DHT22;6504;53.766;9.626;2024-03-06T01:04:09;4.40;99.90
12872;DHT22;6504;53.766;9.626;2024-03-06T01:06:38;4.50;99.90
12872;DHT22;6504;53.766;9.626;2024-03-06T01:09:08;4.40;99.90
12872;DHT22;6504;53.766;9.626;2024-03-06T01:11:36;4.40;99.90
12872;DHT22;6504;53.766;9.626;2024-03-06T01:14:05;4.40;99.90
12872;DHT22;6504;53.766;9.626;2024-03-06T01:16:33;4.40;99.90
12872;DHT22;6504;53.766;9.626;2024-03-06T01:19:02;4.40;99.90
12872;DHT22;6504;53.766;9.626;2024-03-06T01:21:30;4.40;99.90
12872;DHT22;6504;53.766;9.626;2024-03-06T01:23:59;4.30;99.90
12872;DHT22;6504;53.766;9.626;2024-03-06T01:26:28;4.30;99.90
12872;DHT22;6504;53.766;9.626;2024-03-06T01:28:56;4.30;99.90
12872;DHT22;6504;53.766;9.626;2024-03-06T01:31:24;4.30;99.90
12872;DHT22;6504;53.766;9.626;2024-03-06T01:33:52;4.30;99.90
12872;DHT22;6504;53.766;9.626;2024-03-06T01:36:20;4.30;99.90
12872;DHT22;6504;53.766;9.626;2024-03-06T01:38:48;4.30;99.90
12872;DHT22;6504;53.766;9.626;2024-03-06T01:41:16;4.30;99.90
12872;DHT22;6504;53.766;9.626;2024-03-06T01:43:46;4.30;99.90
12872;DHT22;6504;53.766;9.626;2024-03-06T01:46:15;4.20;99.90
12872;DHT22;6504;53.766;9.626;2024-03-06T01:48:43;4.20;99.90
12872;DHT22;6504;53.766;9.626;2024-03-06T01:51:11;4.20;99.90
12872;DHT22;6504;53.766;9.626;2024-03-06T01:53:39;4.20;99.90
12872;DHT22;6504;53.766;9.626;2024-03-06T01:56:08;4.20;99.90
12872;DHT22;6504;53.766;9.626;2024-03-06T01:58:39;4.20;99.90
12872;DHT22;6504;53.766;9.626;2024-03-06T02:01:09;4.20;99.90
12872;DHT22;6504;53.766;9.626;2024-03-06T02:03:38;4.20;99.90
12872;DHT22;6504;53.766;9.626;2024-03-06T02:06:07;4.20;99.90
12872;DHT22;6504;53.766;9.626;2024-03-06T02:08:38;4.20;99.90
12872;DHT22;6504;53.766;9.626;2024-03-06T02:11:08;4.20;99.90
12872;DHT22;6504;53.766;9.626;2024-03-06T02:13:36;4.20;99.90
12872;DHT22;6504;53.766;9.626;2024-03-06T02:16:04;4.20;99.90
12872;DHT22;6504;53.766;9.626;2024-03-06T02:18:34;4.20;99.90
12872;DHT22;6504;53.766;9.626;2024-03-06T02:21:04;4.20;99.90
12872;DHT22;6504;53.766;9.626;2024-03-06T02:23:34;4.20;99.90
12872;DHT22;6504;53.766;9.626;2024-03-06T02:26:02;4.20;99.90
12872;DHT22;6504;53.766;9.626;2024-03-06T02:28:31;4.20;99.90
12872;DHT22;6504;53.766;9.626;2024-03-06T02:31:01;4.20;99.90
12872;DHT22;6504;53.766;9.626;2024-03-06T02:33:31;4.20;99.90
12872;DHT22;6504;53.766;9.626;2024-03-06T02:36:03;4.20;99.90
12872;DHT22;6504;53.766;9.626;2024-03-06T02:38:32;4.10;99.90
12872;DHT22;6504;53.766;9.626;2024-03-06T02:41:01;4.10;99.90
12872;DHT22;6504;53.766;9.626;2024-03-06T02:43:29;4.10;99.90
12872;DHT22;6504;53.766;9.626;2024-03-06T02:45:57;4.10;99.90
12872;DHT22;6504;53.766;9.626;2024-03-06T02:48:25;4.10;99.90
12872;DHT22;6504;53.766;9.626;2024-03-06T02:50:54;4.10;99.90
12872;DHT22;6504;53.766;9.626;2024-03-06T02:53:23;4.10;99.90
12872;DHT22;6504;53.766;9.626;2024-03-06T02:55:52;4.00;99.90
12872;DHT22;6504;53.766;9.626;2024-03-06T02:58:20;4.00;99.90
12872;DHT22;6504;53.766;9.626;2024-03-06T03:00:49;4.10;99.90
12872;DHT22;6504;53.766;9.626;2024-03-06T03:03:17;4.00;99.90
12872;DHT22;6504;53.766;9.626;2024-03-06T03:05:45;4.10;99.90
12872;DHT22;6504;53.766;9.626;2024-03-06T03:08:13;4.10;99.90
12872;DHT22;6504;53.766;9.626;2024-03-06T03:10:44;4.00;99.90
12872;DHT22;6504;53.766;9.626;2024-03-06T03:13:12;4.00;99.90
12872;DHT22;6504;53.766;9.626;2024-03-06T03:15:41;4.00;99.90
12872;DHT22;6504;53.766;9.626;2024-03-06T03:18:09;4.00;99.90
12872;DHT22;6504;53.766;9.626;2024-03-06T03:20:38;4.00;99.90
12872;DHT22;6504;53.766;9.626;2024-03-06T03:23:06;4.00;99.90
12872;DHT22;6504;53.766;9.626;2024-03-06T03:25:39;4.00;99.90
12872;DHT22;6504;53.766;9.626;2024-03-06T03:28:09;4.00;99.90
12872;DHT22;6504;53.766;9.626;2024-03-06T03:30:37;4.00;99.90
12872;DHT22;6504;53.766;9.626;2024-03-06T03:33:05;4.00;99.90
12872;DHT22;6504;53.766;9.626;2024-03-06T03:35:34;4.00;99.90
12872;DHT22;6504;53.766;9.626;2024-03-06T03:38:02;4.00;99.90
12872;DHT22;6504;53.766;9.626;2024-03-06T03:40:31;4.00;99.90
12872;DHT22;6504;53.766;9.626;2024-03-06T03:43:00;4.00;99.90
12872;DHT22;6504;53.766;9.626;2024-03-06T03:45:34;4.00;99.90
12872;DHT22;6504;53.766;9.626;2024-03-06T03:48:03;4.00;99.90
12872;DHT22;6504;53.766;9.626;2024-03-06T03:50:32;4.00;99.90
12872;DHT22;6504;53.766;9.626;2024-03-06T03:53:00;4.00;99.90
12872;DHT22;6504;53.766;9.626;2024-03-06T03:55:28;4.00;99.90
12872;DHT22;6504;53.766;9.626;2024-03-06T03:57:56;4.00;99.90
12872;DHT22;6504;53.766;9.626;2024-03-06T04:00:24;4.00;99.90
12872;DHT22;6504;53.766;9.626;2024-03-06T04:02:54;4.00;99.90
12872;DHT22;6504;53.766;9.626;2024-03-06T04:05:23;4.00;99.90
12872;DHT22;6504;53.766;9.626;2024-03-06T04:07:51;4.00;99.90
12872;DHT22;6504;53.766;9.626;2024-03-06T04:10:19;4.00;99.90
12872;DHT22;6504;53.766;9.626;2024-03-06T04:12:47;4.00;99.90
12872;DHT22;6504;53.766;9.626;2024-03-06T04:15:16;4.00;99.90
12872;DHT22;6504;53.766;9.626;2024-03-06T04:17:44;4.00;99.90
12872;DHT22;6504;53.766;9.626;2024-03-06T04:20:14;3.90;99.90
12872;DHT22;6504;53.766;9.626;2024-03-06T04:22:42;4.00;99.90
12872;DHT22;6504;53.766;9.626;2024-03-06T04:25:13;4.00;99.90
12872;DHT22;6504;53.766;9.626;2024-03-06T04:27:41;3.90;99.90
12872;DHT22;6504;53.766;9.626;2024-03-06T04:30:10;3.90;99.90
12872;DHT22;6504;53.766;9.626;2024-03-06T04:32:38;3.90;99.90
12872;DHT22;6504;53.766;9.626;2024-03-06T04:35:07;3.90;99.90
12872;DHT22;6504;53.766;9.626;2024-03-06T04:37:38;3.90;99.90
12872;DHT22;6504;53.766;9.626;2024-03-06T04:40:08;3.90;99.90
12872;DHT22;6504;53.766;9.626;2024-03-06T04:42:37;3.90;99.90
12872;DHT22;6504;53.766;9.626;2024-03-06T04:45:10;3.90;99.90
12872;DHT22;6504;53.766;9.626;2024-03-06T04:47:38;3.90;99.90
12872;DHT22;6504;53.766;9.626;2024-03-06T04:50:08;3.90;99.90
12872;DHT22;6504;53.766;9.626;2024-03-06T04:52:39;3.90;99.90
12872;DHT22;6504;53.766;9.626;2024-03-06T04:55:08;3.90;99.90
12872;DHT22;6504;53.766;9.626;2024-03-06T04:57:38;3.90;99.90
12872;DHT22;6504;53.766;9.626;2024-03-06T05:00:08;3.90;99.90
12872;DHT22;6504;53.766;9.626;2024-03-06T05:02:37;3.90;99.90
12872;DHT22;6504;53.766;9.626;2024-03-06T05:05:23;3.90;99.90
12872;DHT22;6504;53.766;9.626;2024-03-06T05:08:10;3.90;99.90
12872;DHT22;6504;53.766;9.626;2024-03-06T05:10:55;3.90;99.90
12872;DHT22;6504;53.766;9.626;2024-03-06T05:13:41;3.90;99.90
12872;DHT22;6504;53.766;9.626;2024-03-06T05:16:27;3.90;99.90
12872;DHT22;6504;53.766;9.626;2024-03-06T05:19:13;3.80;99.90
12872;DHT22;6504;53.766;9.626;2024-03-06T05:21:59;3.80;99.90
12872;DHT22;6504;53.766;9.626;2024-03-06T05:24:46;3.80;99.90
12872;DHT22;6504;53.766;9.626;2024-03-06T05:27:31;3.70;99.90
12872;DHT22;6504;53.766;9.626;2024-03-06T05:30:17;3.80;99.90
12872;DHT22;6504;53.766;9.626;2024-03-06T05:33:03;3.80;99.90
12872;DHT22;6504;53.766;9.626;2024-03-06T05:35:48;3.80;99.90
12872;DHT22;6504;53.766;9.626;2024-03-06T05:38:34;3.80;99.90
12872;DHT22;6504;53.766;9.626;2024-03-06T05:41:21;3.80;99.90
12872;DHT22;6504;53.766;9.626;2024-03-06T05:44:06;3.80;99.90
12872;DHT22;6504;53.766;9.626;2024-03-06T05:46:52;3.80;99.90
12872;DHT22;6504;53.766;9.626;2024-03-06T05:49:38;3.80;99.90
12872;DHT22;6504;53.766;9.626;2024-03-06T05:52:23;3.90;99.90
12872;DHT22;6504;53.766;9.626;2024-03-06T05:55:09;3.90;99.90
12872;DHT22;6504;53.766;9.626;2024-03-06T05:57:56;3.90;99.90
12872;DHT22;6504;53.766;9.626;2024-03-06T06:00:38;3.90;99.90
12872;DHT22;6504;53.766;9.626;2024-03-06T06:03:08;3.90;99.90
12872;DHT22;6504;53.766;9.626;2024-03-06T06:05:38;3.90;99.90
12872;DHT22;6504;53.766;9.626;2024-03-06T06:08:07;3.90;99.90
12872;DHT22;6504;53.766;9.626;2024-03-06T06:10:36;3.80;99.90
12872;DHT22;6504;53.766;9.626;2024-03-06T06:13:05;3.80;99.90
12872;DHT22;6504;53.766;9.626;2024-03-06T06:15:33;3.80;99.90
12872;DHT22;6504;53.766;9.626;2024-03-06T06:18:03;3.80;99.90
12872;DHT22;6504;53.766;9.626;2024-03-06T06:20:31;3.80;99.90
12872;DHT22;6504;53.766;9.626;2024-03-06T06:23:01;3.80;99.90
12872;DHT22;6504;53.766;9.626;2024-03-06T06:25:29;3.80;99.90
12872;DHT22;6504;53.766;9.626;2024-03-06T06:27:57;3.80;99.90
12872;DHT22;6504;53.766;9.626;2024-03-06T06:30:27;3.80;99.90
12872;DHT22;6504;53.766;9.626;2024-03-06T06:32:55;3.80;99.90
12872;DHT22;6504;53.766;9.626;2024-03-06T06:35:23;3.80;99.90
12872;DHT22;6504;53.766;9.626;2024-03-06T06:37:52;3.70;99.90
12872;DHT22;6504;53.766;9.626;2024-03-06T06:40:20;3.70;99.90
12872;DHT22;6504;53.766;9.626;2024-03-06T06:42:50;3.70;99.90
12872;DHT22;6504;53.766;9.626;2024-03-06T06:45:19;3.70;99.90
12872;DHT22;6504;53.766;9.626;2024-03-06T06:47:49;3.70;99.90
12872;DHT22;6504;53.766;9.626;2024-03-06T06:50:19;3.70;99.90
12872;DHT22;6504;53.766;9.626;2024-03-06T06:52:50;3.70;99.90
12872;DHT22;6504;53.766;9.626;2024-03-06T06:55:18;3.70;99.90
12872;DHT22;6504;53.766;9.626;2024-03-06T06:57:49;3.60;99.90
12872;DHT22;6504;53.766;9.626;2024-03-06T07:00:18;3.60;99.90
12872;DHT22;6504;53.766;9.626;2024-03-06T07:02:50;3.60;99.90
12872;DHT22;6504;53.766;9.626;2024-03-06T07:05:20;3.60;99.90
12872;DHT22;6504;53.766;9.626;2024-03-06T07:07:48;3.60;99.90
12872;DHT22;6504;53.766;9.626;2024-03-06T07:10:21;3.60;99.90
12872;DHT22;6504;53.766;9.626;2024-03-06T07:12:51;3.60;99.90
12872;DHT22;6504;53.766;9.626;2024-03-06T07:15:20;3.60;99.90
12872;DHT22;6504;53.766;9.626;2024-03-06T07:17:49;3.60;99.90
12872;DHT22;6504;53.766;9.626;2024-03-06T07:20:17;3.60;99.90
12872;DHT22;6504;53.766;9.626;2024-03-06T07:22:46;3.60;99.90
12872;DHT22;6504;53.766;9.626;2024-03-06T07:25:14;3.60;99.90
12872;DHT22;6504;53.766;9.626;2024-03-06T07:27:42;3.50;99.90
12872;DHT22;6504;53.766;9.626;2024-03-06T07:30:11;3.50;99.90
12872;DHT22;6504;53.766;9.626;2024-03-06T07:32:40;3.60;99.90
12872;DHT22;6504;53.766;9.626;2024-03-06T07:35:10;3.60;99.90
12872;DHT22;6504;53.766;9.626;2024-03-06T07:37:39;3.60;99.90
12872;DHT22;6504;53.766;9.626;2024-03-06T07:40:08;3.60;99.90
12872;DHT22;6504;53.766;9.626;2024-03-06T07:42:37;3.60;99.90
12872;DHT22;6504;53.766;9.626;2024-03-06T07:45:06;3.70;99.90
12872;DHT22;6504;53.766;9.626;2024-03-06T07:47:36;3.70;99.90
12872;DHT22;6504;53.766;9.626;2024-03-06T07:50:07;3.80;99.90
12872;DHT22;6504;53.766;9.626;2024-03-06T07:52:39;3.80;99.90
12872;DHT22;6504;53.766;9.626;2024-03-06T07:55:08;3.90;99.90
12872;DHT22;6504;53.766;9.626;2024-03-06T07:57:36;3.90;99.90
12872;DHT22;6504;53.766;9.626;2024-03-06T08:00:06;4.00;99.90
12872;DHT22;6504;53.766;9.626;2024-03-06T08:02:42;4.00;99.90
12872;DHT22;6504;53.766;9.626;2024-03-06T08:05:11;4.00;99.90
12872;DHT22;6504;53.766;9.626;2024-03-06T08:07:41;4.10;99.90
12872;DHT22;6504;53.766;9.626;2024-03-06T08:10:09;4.10;99.90
12872;DHT22;6504;53.766;9.626;2024-03-06T08:12:40;4.20;99.90
12872;DHT22;6504;53.766;9.626;2024-03-06T08:15:11;4.20;99.90
12872;DHT22;6504;53.766;9.626;2024-03-06T08:17:40;4.20;99.90
12872;DHT22;6504;53.766;9.626;2024-03-06T08:20:10;4.30;99.90
12872;DHT22;6504;53.766;9.626;2024-03-06T08:22:41;4.30;99.90
12872;DHT22;6504;53.766;9.626;2024-03-06T08:25:10;4.40;99.90
12872;DHT22;6504;53.766;9.626;2024-03-06T08:27:40;4.40;99.90
12872;DHT22;6504;53.766;9.626;2024-03-06T08:30:09;4.50;99.90
12872;DHT22;6504;53.766;9.626;2024-03-06T08:32:37;4.50;99.90
12872;DHT22;6504;53.766;9.626;2024-03-06T08:35:07;4.50;99.90
12872;DHT22;6504;53.766;9.626;2024-03-06T08:37:38;4.50;99.90
12872;DHT22;6504;53.766;9.626;2024-03-06T08:40:09;4.60;99.90
12872;DHT22;6504;53.766;9.626;2024-03-06T08:42:41;4.70;99.90
12872;DHT22;6504;53.766;9.626;2024-03-06T08:45:10;4.70;99.90
12872;DHT22;6504;53.766;9.626;2024-03-06T08:47:38;4.70;99.90
12872;DHT22;6504;53.766;9.626;2024-03-06T08:50:07;4.70;99.90
12872;DHT22;6504;53.766;9.626;2024-03-06T08:52:36;4.80;99.90
12872;DHT22;6504;53.766;9.626;2024-03-06T08:55:06;4.80;99.90
12872;DHT22;6504;53.766;9.626;2024-03-06T08:57:36;4.80;99.90
12872;DHT22;6504;53.766;9.626;2024-03-06T09:00:06;4.90;99.90
12872;DHT22;6504;53.766;9.626;2024-03-06T09:02:38;5.00;99.90
12872;DHT22;6504;53.766;9.626;2024-03-06T09:05:09;5.00;99.90
12872;DHT22;6504;53.766;9.626;2024-03-06T09:07:39;5.00;99.90
12872;DHT22;6504;53.766;9.626;2024-03-06T09:10:09;5.00;99.90
12872;DHT22;6504;53.766;9.626;2024-03-06T09:12:40;5.00;99.90
12872;DHT22;6504;53.766;9.626;2024-03-06T09:15:08;5.10;99.90
12872;DHT22;6504;53.766;9.626;2024-03-06T09:17:38;5.10;99.90
12872;DHT22;6504;53.766;9.626;2024-03-06T09:20:07;5.10;99.90
12872;DHT22;6504;53.766;9.626;2024-03-06T09:22:39;5.10;99.90
12872;DHT22;6504;53.766;9.626;2024-03-06T09:25:08;5.20;99.90
12872;DHT22;6504;53.766;9.626;2024-03-06T09:27:37;5.30;99.90
12872;DHT22;6504;53.766;9.626;2024-03-06T09:30:08;5.30;99.90
12872;DHT22;6504;53.766;9.626;2024-03-06T09:32:37;5.30;99.90
12872;DHT22;6504;53.766;9.626;2024-03-06T09:35:08;5.30;99.90
12872;DHT22;6504;53.766;9.626;2024-03-06T09:37:36;5.30;99.90
12872;DHT22;6504;53.766;9.626;2024-03-06T09:40:06;5.40;99.90
12872;DHT22;6504;53.766;9.626;2024-03-06T09:42:35;5.40;99.90
12872;DHT22;6504;53.766;9.626;2024-03-06T09:45:04;5.40;99.90
12872;DHT22;6504;53.766;9.626;2024-03-06T09:47:36;5.40;99.90
12872;DHT22;6504;53.766;9.626;2024-03-06T09:50:09;5.50;99.90
12872;DHT22;6504;53.766;9.626;2024-03-06T09:52:39;5.50;99.90
12872;DHT22;6504;53.766;9.626;2024-03-06T09:55:10;5.50;99.90
12872;DHT22;6504;53.766;9.626;2024-03-06T09:57:39;5.60;99.90
12872;DHT22;6504;53.766;9.626;2024-03-06T10:00:08;5.60;99.90
12872;DHT22;6504;53.766;9.626;2024-03-06T10:02:47;5.70;99.90
12872;DHT22;6504;53.766;9.626;2024-03-06T10:05:23;5.70;99.90
12872;DHT22;6504;53.766;9.626;2024-03-06T10:07:52;5.80;99.90
12872;DHT22;6504;53.766;9.626;2024-03-06T10:10:20;5.90;99.90
12872;DHT22;6504;53.766;9.626;2024-03-06T10:12:50;6.00;99.90
12872;DHT22;6504;53.766;9.626;2024-03-06T10:15:18;6.00;99.90
12872;DHT22;6504;53.766;9.626;2024-03-06T10:17:48;6.10;99.90
12872;DHT22;6504;53.766;9.626;2024-03-06T10:20:18;6.20;99.90
12872;DHT22;6504;53.766;9.626;2024-03-06T10:22:49;6.30;99.90
12872;DHT22;6504;53.766;9.626;2024-03-06T10:25:25;6.40;99.90
12872;DHT22;6504;53.766;9.626;2024-03-06T10:28:04;6.50;99.90
12872;DHT22;6504;53.766;9.626;2024-03-06T10:30:33;6.50;99.90
12872;DHT22;6504;53.766;9.626;2024-03-06T10:33:04;6.70;99.90
12872;DHT22;6504;53.766;9.626;2024-03-06T10:35:33;6.70;96.20
12872;DHT22;6504;53.766;9.626;2024-03-06T10:38:04;6.70;99.90
12872;DHT22;6504;53.766;9.626;2024-03-06T10:40:33;6.80;96.70
12872;DHT22;6504;53.766;9.626;2024-03-06T10:43:03;6.80;95.40
12872;DHT22;6504;53.766;9.626;2024-03-06T10:45:45;6.80;95.20
12872;DHT22;6504;53.766;9.626;2024-03-06T10:48:17;6.80;99.10
12872;DHT22;6504;53.766;9.626;2024-03-06T10:50:47;6.90;98.20
12872;DHT22;6504;53.766;9.626;2024-03-06T10:53:17;6.90;99.40
12872;DHT22;6504;53.766;9.626;2024-03-06T10:55:50;6.90;99.90
12872;DHT22;6504;53.766;9.626;2024-03-06T10:58:20;7.00;99.70
12872;DHT22;6504;53.766;9.626;2024-03-06T11:00:48;7.00;97.80
12872;DHT22;6504;53.766;9.626;2024-03-06T11:03:19;7.00;99.90
12872;DHT22;6504;53.766;9.626;2024-03-06T11:05:48;7.10;99.90
12872;DHT22;6504;53.766;9.626;2024-03-06T11:08:19;7.10;98.60
12872;DHT22;6504;53.766;9.626;2024-03-06T11:10:48;7.20;84.90
12872;DHT22;6504;53.766;9.626;2024-03-06T11:13:23;7.20;64.90
12872;DHT22;6504;53.766;9.626;2024-03-06T11:15:56;7.20;85.00
12872;DHT22;6504;53.766;9.626;2024-03-06T11:18:44;7.20;81.80
12872;DHT22;6504;53.766;9.626;2024-03-06T11:21:29;7.30;66.60
12872;DHT22;6504;53.766;9.626;2024-03-06T11:24:16;7.30;71.60
12872;DHT22;6504;53.766;9.626;2024-03-06T11:26:47;7.40;51.70
12872;DHT22;6504;53.766;9.626;2024-03-06T11:29:19;7.50;81.20
12872;DHT22;6504;53.766;9.626;2024-03-06T11:32:05;7.50;50.00
12872;DHT22;6504;53.766;9.626;2024-03-06T11:34:37;7.50;53.30
12872;DHT22;6504;53.766;9.626;2024-03-06T11:37:07;7.50;36.90
12872;DHT22;6504;53.766;9.626;2024-03-06T11:39:38;7.60;48.80
12872;DHT22;6504;53.766;9.626;2024-03-06T11:42:07;7.60;66.50
12872;DHT22;6504;53.766;9.626;2024-03-06T11:44:36;7.60;75.40
12872;DHT22;6504;53.766;9.626;2024-03-06T11:47:06;7.60;74.90
12872;DHT22;6504;53.766;9.626;2024-03-06T11:49:37;7.60;80.00
12872;DHT22;6504;53.766;9.626;2024-03-06T11:52:08;7.70;81.50
12872;DHT22;6504;53.766;9.626;2024-03-06T11:54:37;7.70;57.30
12872;DHT22;6504;53.766;9.626;2024-03-06T11:57:06;7.70;86.20
12872;DHT22;6504;53.766;9.626;2024-03-06T11:59:36;7.80;92.60
12872;DHT22;6504;53.766;9.626;2024-03-06T12:02:06;7.80;71.10
12872;DHT22;6504;53.766;9.626;2024-03-06T12:04:36;7.80;53.10
12872;DHT22;6504;53.766;9.626;2024-03-06T12:07:06;7.80;65.90
12872;DHT22;6504;53.766;9.626;2024-03-06T12:09:37;7.90;96.40
12872;DHT22;6504;53.766;9.626;2024-03-06T12:12:09;7.90;78.80
12872;DHT22;6504;53.766;9.626;2024-03-06T12:14:39;7.90;53.30
12872;DHT22;6504;53.766;9.626;2024-03-06T12:17:13;7.90;60.10
12872;DHT22;6504;53.766;9.626;2024-03-06T12:19:44;7.90;47.20
12872;DHT22;6504;53.766;9.626;2024-03-06T12:22:13;7.90;43.60
12872;DHT22;6504;53.766;9.626;2024-03-06T12:24:42;8.00;33.50
12872;DHT22;6504;53.766;9.626;2024-03-06T12:27:10;8.00;43.70
12872;DHT22;6504;53.766;9.626;2024-03-06T12:29:40;8.10;44.80
12872;DHT22;6504;53.766;9.626;2024-03-06T12:32:16;8.10;38.40
12872;DHT22;6504;53.766;9.626;2024-03-06T12:34:58;8.10;16.30
12872;DHT22;6504;53.766;9.626;2024-03-06T12:37:32;8.10;12.30
12872;DHT22;6504;53.766;9.626;2024-03-06T12:40:02;8.10;14.70
12872;DHT22;6504;53.766;9.626;2024-03-06T12:42:32;8.10;23.70
12872;DHT22;6504;53.766;9.626;2024-03-06T12:45:00;8.10;24.30
12872;DHT22;6504;53.766;9.626;2024-03-06T12:47:30;8.10;18.80
12872;DHT22;6504;53.766;9.626;2024-03-06T12:50:00;8.10;34.10
12872;DHT22;6504;53.766;9.626;2024-03-06T12:52:28;8.20;50.50
12872;DHT22;6504;53.766;9.626;2024-03-06T12:54:56;8.20;54.10
12872;DHT22;6504;53.766;9.626;2024-03-06T12:57:25;8.30;38.80
12872;DHT22;6504;53.766;9.626;2024-03-06T12:59:54;8.30;26.40
12872;DHT22;6504;53.766;9.626;2024-03-06T13:02:22;8.30;37.50
12872;DHT22;6504;53.766;9.626;2024-03-06T13:04:51;8.30;45.90
12872;DHT22;6504;53.766;9.626;2024-03-06T13:07:21;8.20;55.70
12872;DHT22;6504;53.766;9.626;2024-03-06T13:09:49;8.10;54.10
12872;DHT22;6504;53.766;9.626;2024-03-06T13:12:17;8.00;60.90
12872;DHT22;6504;53.766;9.626;2024-03-06T13:14:46;8.00;61.10
12872;DHT22;6504;53.766;9.626;2024-03-06T13:17:14;8.00;56.50
12872;DHT22;6504;53.766;9.626;2024-03-06T13:19:42;7.90;57.10
12872;DHT22;6504;53.766;9.626;2024-03-06T13:22:10;7.90;65.70
12872;DHT22;6504;53.766;9.626;2024-03-06T13:24:40;7.90;71.00
12872;DHT22;6504;53.766;9.626;2024-03-06T13:27:11;7.90;60.40
12872;DHT22;6504;53.766;9.626;2024-03-06T13:29:39;7.80;71.60
12872;DHT22;6504;53.766;9.626;2024-03-06T13:32:08;7.80;65.30
12872;DHT22;6504;53.766;9.626;2024-03-06T13:34:36;7.80;63.70
12872;DHT22;6504;53.766;9.626;2024-03-06T13:37:04;7.80;73.60
12872;DHT22;6504;53.766;9.626;2024-03-06T13:39:37;7.80;66.40
12872;DHT22;6504;53.766;9.626;2024-03-06T13:42:07;7.80;69.70
12872;DHT22;6504;53.766;9.626;2024-03-06T13:44:36;7.80;79.50
12872;DHT22;6504;53.766;9.626;2024-03-06T13:47:04;7.80;62.00
12872;DHT22;6504;53.766;9.626;2024-03-06T13:49:37;7.90;76.30
12872;DHT22;6504;53.766;9.626;2024-03-06T13:52:06;7.90;73.70
12872;DHT22;6504;53.766;9.626;2024-03-06T13:54:38;8.00;59.90
12872;DHT22;6504;53.766;9.626;2024-03-06T13:57:08;8.00;56.80
12872;DHT22;6504;53.766;9.626;2024-03-06T13:59:36;8.00;57.70
12872;DHT22;6504;53.766;9.626;2024-03-06T14:02:08;8.00;72.90
12872;DHT22;6504;53.766;9.626;2024-03-06T14:04:36;8.00;81.70
12872;DHT22;6504;53.766;9.626;2024-03-06T14:07:04;8.10;57.80
12872;DHT22;6504;53.766;9.626;2024-03-06T14:09:33;8.10;53.80
12872;DHT22;6504;53.766;9.626;2024-03-06T14:12:01;8.10;61.70
12872;DHT22;6504;53.766;9.626;2024-03-06T14:14:31;8.10;60.60
12872;DHT22;6504;53.766;9.626;2024-03-06T14:17:00;8.10;52.90
12872;DHT22;6504;53.766;9.626;2024-03-06T14:19:29;8.10;61.20
12872;DHT22;6504;53.766;9.626;2024-03-06T14:21:57;8.10;34.60
12872;DHT22;6504;53.766;9.626;2024-03-06T14:24:30;8.20;49.10
12872;DHT22;6504;53.766;9.626;2024-03-06T14:26:58;8.20;51.00
12872;DHT22;6504;53.766;9.626;2024-03-06T14:29:26;8.20;52.90
12872;DHT22;6504;53.766;9.626;2024-03-06T14:31:57;8.30;45.70
12872;DHT22;6504;53.766;9.626;2024-03-06T14:34:25;8.20;41.10
12872;DHT22;6504;53.766;9.626;2024-03-06T14:36:54;8.20;44.20
12872;DHT22;6504;53.766;9.626;2024-03-06T14:39:24;8.20;42.00
12872;DHT22;6504;53.766;9.626;2024-03-06T14:41:52;8.20;25.40
12872;DHT22;6504;53.766;9.626;2024-03-06T14:44:21;8.20;30.70
12872;DHT22;6504;53.766;9.626;2024-03-06T14:46:49;8.20;33.50
12872;DHT22;6504;53.766;9.626;2024-03-06T14:49:19;8.30;44.20
12872;DHT22;6504;53.766;9.626;2024-03-06T14:51:47;8.20;30.50
12872;DHT22;6504;53.766;9.626;2024-03-06T14:54:15;8.20;43.40
12872;DHT22;6504;53.766;9.626;2024-03-06T14:56:43;8.30;41.50
12872;DHT22;6504;53.766;9.626;2024-03-06T14:59:12;8.30;27.60
12872;DHT22;6504;53.766;9.626;2024-03-06T15:01:40;8.30;32.90
12872;DHT22;6504;53.766;9.626;2024-03-06T15:04:10;8.40;35.70
12872;DHT22;6504;53.766;9.626;2024-03-06T15:06:41;8.40;20.80
12872;DHT22;6504;53.766;9.626;2024-03-06T15:09:09;8.40;15.80
12872;DHT22;6504;53.766;9.626;2024-03-06T15:11:40;8.30;24.30
12872;DHT22;6504;53.766;9.626;2024-03-06T15:14:08;8.30;21.70
12872;DHT22;6504;53.766;9.626;2024-03-06T15:16:37;8.20;16.50
12872;DHT22;6504;53.766;9.626;2024-03-06T15:19:06;8.20;12.10
12872;DHT22;6504;53.766;9.626;2024-03-06T15:21:35;8.20;29.50
12872;DHT22;6504;53.766;9.626;2024-03-06T15:24:05;8.10;26.70
12872;DHT22;6504;53.766;9.626;2024-03-06T15:26:33;8.00;35.70
12872;DHT22;6504;53.766;9.626;2024-03-06T15:29:02;7.90;35.50
12872;DHT22;6504;53.766;9.626;2024-03-06T15:31:32;7.80;37.30
12872;DHT22;6504;53.766;9.626;2024-03-06T15:34:00;7.80;56.10
12872;DHT22;6504;53.766;9.626;2024-03-06T15:36:28;7.70;53.80
12872;DHT22;6504;53.766;9.626;2024-03-06T15:38:57;7.60;51.40
12872;DHT22;6504;53.766;9.626;2024-03-06T15:41:27;7.60;54.20
12872;DHT22;6504;53.766;9.626;2024-03-06T15:43:55;7.50;60.90
12872;DHT22;6504;53.766;9.626;2024-03-06T15:46:23;7.50;75.90
12872;DHT22;6504;53.766;9.626;2024-03-06T15:48:53;7.50;65.10
12872;DHT22;6504;53.766;9.626;2024-03-06T15:51:21;7.40;59.20
12872;DHT22;6504;53.766;9.626;2024-03-06T15:53:49;7.40;77.80
12872;DHT22;6504;53.766;9.626;2024-03-06T15:56:19;7.40;76.80
12872;DHT22;6504;53.766;9.626;2024-03-06T15:58:50;7.30;74.40
12872;DHT22;6504;53.766;9.626;2024-03-06T16:01:18;7.30;79.40
12872;DHT22;6504;53.766;9.626;2024-03-06T16:03:46;7.20;78.50
12872;DHT22;6504;53.766;9.626;2024-03-06T16:06:19;7.20;77.90
12872;DHT22;6504;53.766;9.626;2024-03-06T16:08:57;7.10;83.90
12872;DHT22;6504;53.766;9.626;2024-03-06T16:11:26;7.10;90.00
12872;DHT22;6504;53.766;9.626;2024-03-06T16:13:56;7.00;95.80
12872;DHT22;6504;53.766;9.626;2024-03-06T16:16:26;6.90;89.50
12872;DHT22;6504;53.766;9.626;2024-03-06T16:18:54;6.90;93.50
12872;DHT22;6504;53.766;9.626;2024-03-06T16:21:22;6.80;95.50
12872;DHT22;6504;53.766;9.626;2024-03-06T16:23:51;6.80;98.60